createdAt,value
2023-05-02T00:00:29.371Z,12.64
2023-05-02T00:02:56.086Z,12.62
2023-05-02T00:05:22.949Z,12.60
2023-05-02T00:07:50.001Z,12.58
2023-05-02T00:10:16.835Z,12.56
2023-05-02T00:12:43.375Z,12.57
2023-05-02T00:15:10.705Z,12.53
2023-05-02T00:17:40.555Z,12.52
2023-05-02T00:20:10.536Z,12.48
2023-05-02T00:22:37.572Z,12.45
2023-05-02T00:25:04.666Z,12.43
2023-05-02T00:27:34.363Z,12.43
2023-05-02T00:30:01.675Z,12.38
2023-05-02T00:32:28.790Z,12.38
2023-05-02T00:34:55.903Z,12.36
2023-05-02T00:37:26.466Z,12.34
2023-05-02T00:39:53.116Z,12.32
2023-05-02T00:42:19.641Z,12.30
2023-05-02T00:44:46.981Z,12.27
2023-05-02T00:47:15.349Z,12.24
2023-05-02T00:49:42.266Z,12.21
2023-05-02T00:52:09.697Z,12.20
2023-05-02T00:54:39.221Z,12.18
2023-05-02T00:57:06.150Z,12.17
2023-05-02T00:59:35.127Z,12.14
2023-05-02T01:02:27.236Z,12.12
2023-05-02T01:05:00.454Z,12.10
2023-05-02T01:07:36.635Z,12.08
2023-05-02T01:10:47.507Z,12.05
2023-05-02T01:13:20.812Z,11.99
2023-05-02T01:15:51.749Z,11.96
2023-05-02T01:18:22.476Z,11.96
2023-05-02T01:20:54.586Z,11.92
2023-05-02T01:23:50.379Z,11.89
2023-05-02T01:26:32.071Z,11.85
2023-05-02T01:29:01.000Z,11.82
2023-05-02T01:31:34.571Z,11.80
2023-05-02T01:34:02.490Z,11.81
2023-05-02T01:36:31.653Z,11.75
2023-05-02T01:39:00.466Z,11.73
2023-05-02T01:41:29.095Z,11.71
2023-05-02T01:43:58.751Z,11.69
2023-05-02T01:46:33.309Z,11.67
2023-05-02T01:49:03.406Z,11.65
2023-05-02T01:51:34.795Z,11.61
2023-05-02T01:54:07.260Z,11.63
2023-05-02T01:56:36.917Z,11.60
2023-05-02T01:59:08.292Z,11.59
2023-05-02T02:01:40.264Z,11.54
2023-05-02T02:04:09.870Z,11.51
2023-05-02T02:06:36.888Z,11.51
2023-05-02T02:09:04.007Z,11.48
2023-05-02T02:11:37.330Z,11.49
2023-05-02T02:14:12.526Z,11.47
2023-05-02T02:16:42.657Z,11.46
2023-05-02T02:19:13.199Z,11.45
2023-05-02T02:21:42.508Z,11.42
2023-05-02T02:24:10.678Z,11.38
2023-05-02T02:26:37.765Z,11.39
2023-05-02T02:29:04.776Z,11.35
2023-05-02T02:31:35.992Z,11.35
2023-05-02T02:34:03.611Z,11.32
2023-05-02T02:36:55.874Z,11.30
2023-05-02T02:39:39.861Z,11.27
2023-05-02T02:42:23.053Z,11.23
2023-05-02T02:45:06.590Z,11.20
2023-05-02T02:47:44.013Z,11.19
2023-05-02T02:50:42.957Z,11.18
2023-05-02T02:53:19.235Z,11.14
2023-05-02T02:56:00.652Z,11.10
2023-05-02T02:58:37.073Z,11.11
2023-05-02T03:01:06.612Z,11.08
2023-05-02T03:03:34.485Z,11.06
2023-05-02T03:06:01.669Z,11.05
2023-05-02T03:08:28.357Z,11.03
2023-05-02T03:10:54.829Z,11.02
2023-05-02T03:13:21.354Z,11.04
2023-05-02T03:15:54.107Z,11.02
2023-05-02T03:18:20.777Z,11.01
2023-05-02T03:20:47.273Z,10.99
2023-05-02T03:23:13.812Z,10.96
2023-05-02T03:25:40.303Z,10.93
2023-05-02T03:28:06.781Z,10.93
2023-05-02T03:30:33.873Z,10.91
2023-05-02T03:33:01.730Z,10.91
2023-05-02T03:35:28.309Z,10.90
2023-05-02T03:37:54.796Z,10.84
2023-05-02T03:40:21.994Z,10.85
2023-05-02T03:42:48.678Z,10.83
2023-05-02T03:45:15.336Z,10.83
2023-05-02T03:47:42.196Z,10.81
2023-05-02T03:50:08.992Z,10.78
2023-05-02T03:52:35.883Z,10.77
2023-05-02T03:55:02.462Z,10.74
2023-05-02T03:57:31.991Z,10.74
2023-05-02T03:59:58.861Z,10.72
2023-05-02T04:02:25.989Z,10.72
2023-05-02T04:04:52.548Z,10.70
2023-05-02T04:07:19.697Z,10.71
2023-05-02T04:09:46.669Z,10.68
2023-05-02T04:12:15.840Z,10.69
2023-05-02T04:14:42.425Z,10.66
2023-05-02T04:17:09.055Z,10.66
2023-05-02T04:19:35.716Z,10.65
2023-05-02T04:22:03.437Z,10.64
2023-05-02T04:24:30.009Z,10.62
2023-05-02T04:26:56.530Z,10.61
2023-05-02T04:29:23.074Z,10.61
2023-05-02T04:31:50.908Z,10.58
2023-05-02T04:34:18.476Z,10.58
2023-05-02T04:36:47.926Z,10.57
2023-05-02T04:39:14.418Z,10.53
2023-05-02T04:41:41.719Z,10.55
2023-05-02T04:44:08.210Z,10.54
2023-05-02T04:46:34.838Z,10.54
2023-05-02T04:49:01.507Z,10.53
2023-05-02T04:51:29.205Z,10.51
2023-05-02T04:53:55.721Z,10.52
2023-05-02T04:56:22.223Z,10.52
2023-05-02T04:58:48.770Z,10.52
2023-05-02T05:01:15.336Z,10.51
2023-05-02T05:03:42.007Z,10.51
2023-05-02T05:06:08.643Z,10.52
2023-05-02T05:08:35.255Z,10.50
2023-05-02T05:11:01.951Z,10.47
2023-05-02T05:13:28.642Z,10.47
2023-05-02T05:15:55.196Z,10.47
2023-05-02T05:18:22.031Z,10.46
2023-05-02T05:20:48.501Z,10.48
2023-05-02T05:23:15.174Z,10.48
2023-05-02T05:25:43.540Z,10.48
2023-05-02T05:28:12.762Z,10.47
2023-05-02T05:30:39.333Z,10.49
2023-05-02T05:33:05.848Z,10.51
2023-05-02T05:35:32.875Z,10.52
2023-05-02T05:37:59.505Z,10.49
2023-05-02T05:40:26.071Z,10.52
2023-05-02T05:42:52.659Z,10.54
2023-05-02T05:45:19.805Z,10.55
2023-05-02T05:47:46.506Z,10.54
2023-05-02T05:50:13.113Z,10.57
2023-05-02T05:52:39.908Z,10.56
2023-05-02T05:55:07.333Z,10.58
2023-05-02T05:57:33.866Z,10.61
2023-05-02T06:00:00.650Z,10.63
2023-05-02T06:02:27.504Z,10.66
2023-05-02T06:04:54.117Z,10.68
2023-05-02T06:07:20.658Z,10.71
2023-05-02T06:09:47.220Z,10.77
2023-05-02T06:12:13.720Z,10.82
2023-05-02T06:14:40.215Z,10.84
2023-05-02T06:17:06.711Z,10.85
2023-05-02T06:19:33.637Z,10.88
2023-05-02T06:22:00.378Z,10.89
2023-05-02T06:24:26.845Z,10.91
2023-05-02T06:26:53.544Z,10.93
2023-05-02T06:29:20.055Z,10.94
2023-05-02T06:31:46.640Z,10.96
2023-05-02T06:34:13.205Z,11.00
2023-05-02T06:36:39.689Z,11.03
2023-05-02T06:39:06.505Z,11.06
2023-05-02T06:41:33.064Z,11.07
2023-05-02T06:43:59.630Z,11.10
2023-05-02T06:46:29.650Z,11.13
2023-05-02T06:48:56.397Z,11.15
2023-05-02T06:51:23.044Z,11.15
2023-05-02T06:53:49.686Z,11.18
2023-05-02T06:56:16.235Z,11.22
2023-05-02T06:58:42.779Z,11.25
2023-05-02T07:01:09.498Z,11.29
2023-05-02T07:03:36.027Z,11.33
2023-05-02T07:06:02.543Z,11.36
2023-05-02T07:08:29.073Z,11.41
2023-05-02T07:10:55.626Z,11.43
2023-05-02T07:13:22.166Z,11.48
2023-05-02T07:15:48.752Z,11.52
2023-05-02T07:18:15.312Z,11.59
2023-05-02T07:20:42.502Z,11.63
2023-05-02T07:23:09.410Z,11.68
2023-05-02T07:25:36.838Z,11.73
2023-05-02T07:28:03.775Z,11.77
2023-05-02T07:30:30.356Z,11.81
2023-05-02T07:32:56.995Z,11.87
2023-05-02T07:35:23.610Z,11.92
2023-05-02T07:37:50.253Z,11.96
2023-05-02T07:40:16.874Z,12.03
2023-05-02T07:42:44.335Z,12.07
2023-05-02T07:45:11.036Z,12.13
2023-05-02T07:47:37.748Z,12.21
2023-05-02T07:50:04.630Z,12.28
2023-05-02T07:52:31.344Z,12.32
2023-05-02T07:54:57.838Z,12.39
2023-05-02T07:57:24.467Z,12.45
2023-05-02T07:59:51.162Z,12.51
2023-05-02T08:02:20.233Z,12.57
2023-05-02T08:04:47.864Z,12.64
2023-05-02T08:07:14.488Z,12.70
2023-05-02T08:09:41.028Z,12.76
2023-05-02T08:12:07.518Z,12.83
2023-05-02T08:14:34.290Z,12.89
2023-05-02T08:17:00.979Z,12.95
2023-05-02T08:19:27.942Z,13.01
2023-05-02T08:21:55.612Z,13.08
2023-05-02T08:24:22.745Z,13.14
2023-05-02T08:26:49.322Z,13.22
2023-05-02T08:29:16.186Z,13.29
2023-05-02T08:31:43.451Z,13.38
2023-05-02T08:34:09.990Z,13.44
2023-05-02T08:36:37.373Z,13.52
2023-05-02T08:39:04.035Z,13.59
2023-05-02T08:41:33.365Z,13.67
2023-05-02T08:44:00.560Z,13.75
2023-05-02T08:46:28.525Z,13.83
2023-05-02T08:48:59.020Z,13.93
2023-05-02T08:51:25.924Z,14.02
2023-05-02T08:53:52.808Z,14.10
2023-05-02T08:56:19.643Z,14.21
2023-05-02T08:58:46.163Z,14.30
2023-05-02T09:01:19.065Z,14.38
2023-05-02T09:03:46.929Z,14.46
2023-05-02T09:06:21.424Z,14.54
2023-05-02T09:08:54.584Z,14.61
2023-05-02T09:11:21.783Z,14.67
2023-05-02T09:13:49.029Z,14.74
2023-05-02T09:16:24.216Z,14.82
2023-05-02T09:18:55.455Z,14.88
2023-05-02T09:21:27.368Z,14.95
2023-05-02T09:23:56.223Z,15.03
2023-05-02T09:26:32.231Z,15.11
2023-05-02T09:29:03.889Z,15.17
2023-05-02T09:34:11.857Z,15.44
2023-05-02T09:36:40.929Z,15.60
2023-05-02T09:39:22.503Z,15.79
2023-05-02T09:41:51.401Z,15.97
2023-05-02T09:44:20.283Z,16.13
2023-05-02T09:46:50.789Z,16.35
2023-05-02T09:49:19.112Z,16.52
2023-05-02T09:51:49.631Z,16.66
2023-05-02T09:54:38.581Z,16.81
2023-05-02T09:57:07.128Z,16.92
2023-05-02T09:59:33.800Z,16.99
2023-05-02T10:02:07.266Z,17.09
2023-05-02T10:04:34.795Z,17.15
2023-05-02T10:07:03.322Z,17.21
2023-05-02T10:09:32.746Z,17.31
2023-05-02T10:12:05.027Z,17.40
2023-05-02T10:14:35.562Z,17.48
2023-05-02T10:17:12.707Z,17.57
2023-05-02T10:19:49.034Z,17.65
2023-05-02T10:22:19.271Z,17.72
2023-05-02T10:24:49.169Z,17.79
2023-05-02T10:27:16.004Z,17.86
2023-05-02T10:29:42.753Z,17.94
2023-05-02T10:32:10.892Z,18.04
2023-05-02T10:34:40.570Z,18.13
2023-05-02T10:37:07.140Z,18.21
2023-05-02T10:39:34.077Z,18.29
2023-05-02T10:42:03.534Z,18.37
2023-05-02T10:44:34.256Z,18.49
2023-05-02T10:47:01.229Z,18.60
2023-05-02T10:49:29.891Z,18.70
2023-05-02T10:51:56.462Z,18.77
2023-05-02T10:54:25.651Z,18.87
2023-05-02T10:57:01.218Z,18.95
2023-05-02T10:59:31.696Z,19.02
2023-05-02T11:01:58.507Z,19.07
2023-05-02T11:04:25.710Z,19.10
2023-05-02T11:07:01.287Z,19.12
2023-05-02T11:09:27.783Z,19.14
2023-05-02T11:11:57.210Z,19.16
2023-05-02T11:14:27.399Z,19.18
2023-05-02T11:17:00.039Z,19.19
2023-05-02T11:19:29.177Z,19.19
2023-05-02T11:22:19.707Z,19.20
2023-05-02T11:24:48.099Z,19.21
2023-05-02T11:27:41.447Z,19.23
2023-05-02T11:30:09.683Z,19.23
2023-05-02T11:32:45.798Z,19.24
2023-05-02T11:35:20.094Z,19.24
2023-05-02T11:38:02.092Z,19.23
2023-05-02T11:40:29.673Z,19.28
2023-05-02T11:42:57.760Z,19.30
2023-05-02T11:45:37.599Z,19.37
2023-05-02T11:48:07.944Z,19.45
2023-05-02T11:50:46.672Z,19.48
2023-05-02T11:53:22.312Z,19.64
2023-05-02T11:55:51.710Z,19.77
2023-05-02T11:58:20.854Z,19.84
2023-05-02T12:00:48.434Z,19.87
2023-05-02T12:03:30.952Z,19.87
2023-05-02T12:06:09.958Z,19.85
2023-05-02T12:08:37.256Z,19.82
2023-05-02T12:11:03.965Z,19.78
2023-05-02T12:13:30.668Z,19.75
2023-05-02T12:15:58.498Z,19.74
2023-05-02T12:18:27.053Z,19.71
2023-05-02T12:20:55.505Z,19.68
2023-05-02T12:23:24.697Z,19.67
2023-05-02T12:25:51.427Z,19.65
2023-05-02T12:28:19.768Z,19.63
2023-05-02T12:30:48.780Z,19.61
2023-05-02T12:33:16.863Z,19.58
2023-05-02T12:35:45.483Z,19.55
2023-05-02T12:38:22.896Z,19.54
2023-05-02T12:40:51.750Z,19.48
2023-05-02T12:43:19.069Z,19.47
2023-05-02T12:45:46.610Z,19.46
2023-05-02T12:48:26.866Z,19.47
2023-05-02T12:50:54.940Z,19.47
2023-05-02T12:53:44.314Z,19.48
2023-05-02T12:56:11.841Z,19.49
2023-05-02T12:58:43.414Z,19.52
2023-05-02T13:01:10.693Z,19.57
2023-05-02T13:03:37.691Z,19.59
2023-05-02T13:06:04.554Z,19.64
2023-05-02T13:08:33.049Z,19.69
2023-05-02T13:11:00.005Z,19.75
2023-05-02T13:13:26.691Z,19.81
2023-05-02T13:15:53.187Z,19.86
2023-05-02T13:18:19.772Z,19.90
2023-05-02T13:20:46.280Z,19.96
2023-05-02T13:23:12.821Z,20.00
2023-05-02T13:25:39.426Z,20.04
2023-05-02T13:28:06.500Z,20.08
2023-05-02T13:30:33.318Z,20.11
2023-05-02T13:33:00.764Z,20.16
2023-05-02T13:35:27.324Z,20.19
2023-05-02T13:37:53.874Z,20.23
2023-05-02T13:40:21.364Z,20.27
2023-05-02T13:42:47.933Z,20.32
2023-05-02T13:45:14.661Z,20.39
2023-05-02T13:47:41.660Z,20.43
2023-05-02T13:50:08.752Z,20.47
2023-05-02T13:52:35.355Z,20.53
2023-05-02T13:55:01.919Z,20.58
2023-05-02T13:57:28.390Z,20.62
2023-05-02T13:59:54.890Z,20.65
2023-05-02T14:02:22.530Z,20.67
2023-05-02T14:04:49.070Z,20.68
2023-05-02T14:07:15.663Z,20.66
2023-05-02T14:09:42.236Z,20.67
2023-05-02T14:12:08.800Z,20.66
2023-05-02T14:14:37.553Z,20.65
2023-05-02T14:17:05.437Z,20.64
2023-05-02T14:19:32.539Z,20.64
2023-05-02T14:21:59.012Z,20.64
2023-05-02T14:24:25.718Z,20.65
2023-05-02T14:26:52.208Z,20.67
2023-05-02T14:29:19.873Z,20.67
2023-05-02T14:31:46.632Z,20.66
2023-05-02T14:34:13.330Z,20.68
2023-05-02T14:36:39.974Z,20.70
2023-05-02T14:39:06.516Z,20.70
2023-05-02T14:41:33.051Z,20.73
2023-05-02T14:43:59.539Z,20.75
2023-05-02T14:46:26.122Z,20.79
2023-05-02T14:48:52.742Z,20.81
2023-05-02T14:51:19.332Z,20.80
2023-05-02T14:53:48.106Z,20.78
2023-05-02T14:56:16.045Z,20.78
2023-05-02T14:58:43.130Z,20.80
2023-05-02T15:01:17.980Z,20.81
2023-05-02T15:04:03.612Z,20.81
2023-05-02T15:06:35.593Z,20.80
2023-05-02T15:09:02.630Z,20.81
2023-05-02T15:11:29.095Z,20.81
2023-05-02T15:13:58.832Z,20.80
2023-05-02T15:16:27.123Z,20.81
2023-05-02T15:18:54.094Z,20.83
2023-05-02T15:21:20.965Z,20.85
2023-05-02T15:23:47.626Z,20.83
2023-05-02T15:26:14.304Z,20.81
2023-05-02T15:28:40.940Z,20.78
2023-05-02T15:31:07.569Z,20.73
2023-05-02T15:33:34.099Z,20.70
2023-05-02T15:36:00.740Z,20.65
2023-05-02T15:38:28.082Z,20.61
2023-05-02T15:40:55.485Z,20.58
2023-05-02T15:43:22.355Z,20.55
2023-05-02T15:45:58.349Z,20.52
2023-05-02T15:48:28.696Z,20.53
2023-05-02T15:50:55.558Z,20.55
2023-05-02T15:53:25.349Z,20.54
2023-05-02T15:55:52.689Z,20.53
2023-05-02T15:58:19.866Z,20.46
2023-05-02T16:00:47.528Z,20.39
2023-05-02T16:03:14.301Z,20.31
2023-05-02T16:05:41.678Z,20.24
2023-05-02T16:08:08.201Z,20.15
2023-05-02T16:10:36.660Z,20.05
2023-05-02T16:13:03.344Z,19.97
2023-05-02T16:15:30.494Z,19.89
2023-05-02T16:17:57.336Z,19.86
2023-05-02T16:20:24.008Z,19.82
2023-05-02T16:22:50.519Z,19.77
2023-05-02T16:25:17.414Z,19.72
2023-05-02T16:27:44.376Z,19.68
2023-05-02T16:30:11.365Z,19.63
2023-05-02T16:32:38.098Z,19.58
2023-05-02T16:35:07.391Z,19.51
2023-05-02T16:37:35.313Z,19.45
2023-05-02T16:40:02.951Z,19.38
2023-05-02T16:42:29.802Z,19.35
2023-05-02T16:44:57.556Z,19.32
2023-05-02T16:47:24.231Z,19.27
2023-05-02T16:49:55.080Z,19.23
2023-05-02T16:52:22.263Z,19.19
2023-05-02T16:54:49.061Z,19.15
2023-05-02T16:57:19.737Z,19.11
2023-05-02T16:59:51.485Z,19.05
2023-05-02T17:02:20.940Z,19.00
2023-05-02T17:04:48.848Z,18.96
2023-05-02T17:07:15.651Z,18.88
2023-05-02T17:09:42.840Z,18.83
2023-05-02T17:12:10.770Z,18.78
2023-05-02T17:14:39.592Z,18.76
2023-05-02T17:17:06.119Z,18.69
2023-05-02T17:19:32.688Z,18.68
2023-05-02T17:21:59.544Z,18.63
2023-05-02T17:24:26.205Z,18.58
2023-05-02T17:26:52.795Z,18.57
2023-05-02T17:29:19.753Z,18.53
2023-05-02T17:31:46.336Z,18.50
2023-05-02T17:34:13.121Z,18.46
2023-05-02T17:36:42.079Z,18.44
2023-05-02T17:39:10.403Z,18.42
2023-05-02T17:41:37.668Z,18.37
2023-05-02T17:44:05.133Z,18.29
2023-05-02T17:46:32.732Z,18.21
2023-05-02T17:49:00.006Z,18.12
2023-05-02T17:51:26.954Z,18.02
2023-05-02T17:53:53.893Z,17.92
2023-05-02T17:56:21.009Z,17.84
2023-05-02T17:58:47.580Z,17.73
2023-05-02T18:01:14.444Z,17.64
2023-05-02T18:03:41.914Z,17.56
2023-05-02T18:06:09.011Z,17.48
2023-05-02T18:08:35.821Z,17.39
2023-05-02T18:11:03.373Z,17.33
2023-05-02T18:13:30.163Z,17.26
2023-05-02T18:16:01.409Z,17.16
2023-05-02T18:18:28.060Z,17.07
2023-05-02T18:20:55.846Z,16.99
2023-05-02T18:23:22.344Z,16.93
2023-05-02T18:25:48.859Z,16.84
2023-05-02T18:28:15.358Z,16.74
2023-05-02T18:30:41.864Z,16.69
2023-05-02T18:33:09.148Z,16.61
2023-05-02T18:35:35.946Z,16.53
2023-05-02T18:38:02.589Z,16.46
2023-05-02T18:40:29.165Z,16.39
2023-05-02T18:42:55.726Z,16.31
2023-05-02T18:45:22.235Z,16.21
2023-05-02T18:47:51.096Z,16.10
2023-05-02T18:50:18.256Z,16.07
2023-05-02T18:52:44.797Z,15.96
2023-05-02T18:55:11.589Z,15.86
2023-05-02T18:57:38.116Z,15.79
2023-05-02T19:00:09.403Z,15.73
2023-05-02T19:02:36.075Z,15.61
2023-05-02T19:05:09.724Z,15.55
2023-05-02T19:07:38.437Z,15.45
2023-05-02T19:10:05.723Z,15.38
2023-05-02T19:12:32.221Z,15.30
2023-05-02T19:14:58.745Z,15.22
2023-05-02T19:17:26.796Z,15.14
2023-05-02T19:19:54.400Z,15.04
2023-05-02T19:22:23.336Z,14.93
2023-05-02T19:24:50.835Z,14.83
2023-05-02T19:27:17.395Z,14.79
2023-05-02T19:29:44.256Z,14.68
2023-05-02T19:32:10.990Z,14.58
2023-05-02T19:34:37.706Z,14.51
2023-05-02T19:37:04.220Z,14.43
2023-05-02T19:39:31.502Z,14.34
2023-05-02T19:41:58.141Z,14.22
2023-05-02T19:44:24.632Z,14.15
2023-05-02T19:46:51.199Z,14.07
2023-05-02T19:49:17.729Z,14.02
2023-05-02T19:51:44.334Z,13.96
2023-05-02T19:54:11.649Z,13.86
2023-05-02T19:56:38.197Z,13.85
2023-05-02T19:59:04.692Z,13.73
2023-05-02T20:01:31.456Z,13.64
2023-05-02T20:03:58.573Z,13.64
2023-05-02T20:06:25.541Z,13.60
2023-05-02T20:08:53.053Z,13.52
2023-05-02T20:11:19.818Z,13.42
2023-05-02T20:13:46.373Z,13.38
2023-05-02T20:16:13.991Z,13.33
2023-05-02T20:18:40.582Z,13.28
2023-05-02T20:21:07.148Z,13.24
2023-05-02T20:23:33.679Z,13.21
2023-05-02T20:26:00.296Z,13.13
2023-05-02T20:28:26.785Z,13.09
2023-05-02T20:30:53.268Z,13.01
2023-05-02T20:33:19.994Z,12.97
2023-05-02T20:35:53.537Z,12.87
2023-05-02T20:38:20.414Z,12.84
2023-05-02T20:40:46.900Z,12.78
2023-05-02T20:43:14.326Z,12.74
2023-05-02T20:45:40.966Z,12.66
2023-05-02T20:48:07.723Z,12.64
2023-05-02T20:50:34.277Z,12.54
2023-05-02T20:53:00.938Z,12.54
2023-05-02T20:55:27.734Z,12.46
2023-05-02T20:57:54.219Z,12.40
2023-05-02T21:00:22.503Z,12.35
2023-05-02T21:02:49.187Z,12.31
2023-05-02T21:05:15.904Z,12.25
2023-05-02T21:07:42.475Z,12.21
2023-05-02T21:10:09.657Z,12.17
2023-05-02T21:12:36.193Z,12.08
2023-05-02T21:15:02.804Z,12.03
2023-05-02T21:17:29.356Z,11.97
2023-05-02T21:19:58.727Z,11.90
2023-05-02T21:22:25.292Z,11.88
2023-05-02T21:24:51.779Z,11.83
2023-05-02T21:27:18.483Z,11.74
2023-05-02T21:29:45.096Z,11.73
2023-05-02T21:32:11.626Z,11.65
2023-05-02T21:34:38.512Z,11.64
2023-05-02T21:37:05.041Z,11.58
2023-05-02T21:39:31.617Z,11.52
2023-05-02T21:41:58.256Z,11.49
2023-05-02T21:44:25.086Z,11.42
2023-05-02T21:46:52.011Z,11.38
2023-05-02T21:49:18.666Z,11.36
2023-05-02T21:51:45.143Z,11.33
2023-05-02T21:54:11.823Z,11.23
2023-05-02T21:56:38.424Z,11.21
2023-05-02T21:59:04.955Z,11.15
2023-05-02T22:01:31.489Z,11.09
2023-05-02T22:03:58.210Z,11.11
2023-05-02T22:06:25.212Z,11.06
2023-05-02T22:08:52.132Z,10.98
2023-05-02T22:11:18.725Z,10.96
2023-05-02T22:13:45.468Z,10.96
2023-05-02T22:16:12.123Z,10.91
2023-05-02T22:18:38.650Z,10.93
2023-05-02T22:21:05.165Z,10.90
2023-05-02T22:23:31.937Z,10.85
2023-05-02T22:25:58.782Z,10.85
2023-05-02T22:28:25.383Z,10.82
2023-05-02T22:30:51.886Z,10.79
2023-05-02T22:33:18.384Z,10.79
2023-05-02T22:35:44.880Z,10.76
2023-05-02T22:38:15.119Z,10.73
2023-05-02T22:40:41.624Z,10.80
2023-05-02T22:43:08.492Z,10.71
2023-05-02T22:45:36.498Z,10.64
2023-05-02T22:48:03.147Z,10.57
2023-05-02T22:50:30.218Z,10.57
2023-05-02T22:52:57.347Z,10.57
2023-05-02T22:55:24.439Z,10.56
2023-05-02T22:57:51.456Z,10.51
2023-05-02T23:00:18.161Z,10.49
2023-05-02T23:02:45.261Z,10.42
2023-05-02T23:05:11.832Z,10.40
2023-05-02T23:07:38.301Z,10.35
2023-05-02T23:10:06.065Z,10.31
2023-05-02T23:12:32.845Z,10.26
2023-05-02T23:14:59.376Z,10.16
2023-05-02T23:17:26.000Z,10.12
2023-05-02T23:19:52.512Z,10.05
2023-05-02T23:22:19.018Z,10.01
2023-05-02T23:24:47.414Z,9.96
2023-05-02T23:27:14.032Z,9.87
2023-05-02T23:29:40.640Z,9.80
2023-05-02T23:32:08.130Z,9.74
2023-05-02T23:34:36.652Z,9.69
2023-05-02T23:37:06.108Z,9.64
2023-05-02T23:39:33.410Z,9.57
2023-05-02T23:42:00.877Z,9.54
2023-05-02T23:44:27.449Z,9.47
2023-05-02T23:46:54.208Z,9.44
2023-05-02T23:49:21.560Z,9.40
2023-05-02T23:51:48.617Z,9.35
2023-05-02T23:54:15.994Z,9.33
2023-05-02T23:56:42.922Z,9.31
2023-05-02T23:59:10.011Z,9.29
